sensor_id;sensor_type;location;lat;lon;timestamp;temperature;humidity
9776;DHT22;4927;52.472;13.108;2023-05-14T00:00:54;9.60;99.90
9776;DHT22;4927;52.472;13.108;2023-05-14T00:01:56;9.60;99.90
9776;DHT22;4927;52.472;13.108;2023-05-14T00:02:57;9.60;99.90
9776;DHT22;4927;52.472;13.108;2023-05-14T00:04:00;9.60;99.90
9776;DHT22;4927;52.472;13.108;2023-05-14T00:05:02;9.60;99.90
9776;DHT22;4927;52.472;13.108;2023-05-14T00:06:04;9.50;99.90
9776;DHT22;4927;52.472;13.108;2023-05-14T00:07:07;9.50;99.90
9776;DHT22;4927;52.472;13.108;2023-05-14T00:08:08;9.50;99.90
9776;DHT22;4927;52.472;13.108;2023-05-14T00:09:10;9.50;99.90
9776;DHT22;4927;52.472;13.108;2023-05-14T00:10:12;9.50;99.90
9776;DHT22;4927;52.472;13.108;2023-05-14T00:11:13;9.50;99.90
9776;DHT22;4927;52.472;13.108;2023-05-14T00:12:15;9.50;99.90
9776;DHT22;4927;52.472;13.108;2023-05-14T00:13:17;9.50;99.90
9776;DHT22;4927;52.472;13.108;2023-05-14T00:14:18;9.50;99.90
9776;DHT22;4927;52.472;13.108;2023-05-14T00:15:20;9.40;99.90
9776;DHT22;4927;52.472;13.108;2023-05-14T00:16:22;9.50;99.90
9776;DHT22;4927;52.472;13.108;2023-05-14T00:17:23;9.50;99.90
9776;DHT22;4927;52.472;13.108;2023-05-14T00:18:26;9.40;99.90
9776;DHT22;4927;52.472;13.108;2023-05-14T00:19:28;9.40;99.90
9776;DHT22;4927;52.472;13.108;2023-05-14T00:20:30;9.40;99.90
9776;DHT22;4927;52.472;13.108;2023-05-14T00:21:31;9.40;99.90
9776;DHT22;4927;52.472;13.108;2023-05-14T00:22:33;9.40;99.90
9776;DHT22;4927;52.472;13.108;2023-05-14T00:23:34;9.40;99.90
9776;DHT22;4927;52.472;13.108;2023-05-14T00:24:36;9.30;99.90
9776;DHT22;4927;52.472;13.108;2023-05-14T00:25:38;9.30;99.90
9776;DHT22;4927;52.472;13.108;2023-05-14T00:26:40;9.40;99.90
9776;DHT22;4927;52.472;13.108;2023-05-14T00:27:42;9.30;99.90
9776;DHT22;4927;52.472;13.108;2023-05-14T00:28:44;9.30;99.90
9776;DHT22;4927;52.472;13.108;2023-05-14T00:29:46;9.30;99.90
9776;DHT22;4927;52.472;13.108;2023-05-14T00:30:48;9.30;99.90
9776;DHT22;4927;52.472;13.108;2023-05-14T00:31:49;9.30;99.90
9776;DHT22;4927;52.472;13.108;2023-05-14T00:32:51;9.30;99.90
9776;DHT22;4927;52.472;13.108;2023-05-14T00:33:53;9.20;99.90
9776;DHT22;4927;52.472;13.108;2023-05-14T00:34:54;9.20;99.90
9776;DHT22;4927;52.472;13.108;2023-05-14T00:35:56;9.20;99.90
9776;DHT22;4927;52.472;13.108;2023-05-14T00:36:58;9.20;99.90
9776;DHT22;4927;52.472;13.108;2023-05-14T00:38:00;9.20;99.90
9776;DHT22;4927;52.472;13.108;2023-05-14T00:39:02;9.20;99.90
9776;DHT22;4927;52.472;13.108;2023-05-14T00:40:05;9.20;99.90
9776;DHT22;4927;52.472;13.108;2023-05-14T00:41:08;9.10;99.90
9776;DHT22;4927;52.472;13.108;2023-05-14T00:42:10;9.10;99.90
9776;DHT22;4927;52.472;13.108;2023-05-14T00:43:12;9.10;99.90
9776;DHT22;4927;52.472;13.108;2023-05-14T00:44:13;9.10;99.90
9776;DHT22;4927;52.472;13.108;2023-05-14T00:45:15;9.10;99.90
9776;DHT22;4927;52.472;13.108;2023-05-14T00:46:17;9.10;99.90
9776;DHT22;4927;52.472;13.108;2023-05-14T00:47:18;9.10;99.90
9776;DHT22;4927;52.472;13.108;2023-05-14T00:48:21;9.00;99.90
9776;DHT22;4927;52.472;13.108;2023-05-14T00:49:22;9.10;99.90
9776;DHT22;4927;52.472;13.108;2023-05-14T00:50:25;8.90;99.90
9776;DHT22;4927;52.472;13.108;2023-05-14T00:51:27;8.90;99.90
9776;DHT22;4927;52.472;13.108;2023-05-14T00:52:29;8.90;99.90
9776;DHT22;4927;52.472;13.108;2023-05-14T00:53:31;8.90;99.90
9776;DHT22;4927;52.472;13.108;2023-05-14T00:54:33;8.80;99.90
9776;DHT22;4927;52.472;13.108;2023-05-14T00:55:37;8.80;99.90
9776;DHT22;4927;52.472;13.108;2023-05-14T00:56:38;8.80;99.90
9776;DHT22;4927;52.472;13.108;2023-05-14T00:57:40;8.80;99.90
9776;DHT22;4927;52.472;13.108;2023-05-14T00:58:41;8.70;99.90
9776;DHT22;4927;52.472;13.108;2023-05-14T00:59:43;8.70;99.90
9776;DHT22;4927;52.472;13.108;2023-05-14T01:00:45;8.70;99.90
9776;DHT22;4927;52.472;13.108;2023-05-14T01:01:46;8.70;99.90
9776;DHT22;4927;52.472;13.108;2023-05-14T01:02:48;8.70;99.90
9776;DHT22;4927;52.472;13.108;2023-05-14T01:03:50;8.70;99.90
9776;DHT22;4927;52.472;13.108;2023-05-14T01:04:51;8.70;99.90
9776;DHT22;4927;52.472;13.108;2023-05-14T01:06:14;8.70;99.90
9776;DHT22;4927;52.472;13.108;2023-05-14T01:07:27;8.60;99.90
9776;DHT22;4927;52.472;13.108;2023-05-14T01:09:07;8.60;99.90
9776;DHT22;4927;52.472;13.108;2023-05-14T01:10:12;8.70;99.90
9776;DHT22;4927;52.472;13.108;2023-05-14T01:11:28;8.60;99.90
9776;DHT22;4927;52.472;13.108;2023-05-14T01:14:27;8.70;99.90
9776;DHT22;4927;52.472;13.108;2023-05-14T01:15:32;8.70;99.90
9776;DHT22;4927;52.472;13.108;2023-05-14T01:16:34;8.70;99.90
9776;DHT22;4927;52.472;13.108;2023-05-14T01:17:40;8.70;99.90
9776;DHT22;4927;52.472;13.108;2023-05-14T01:18:40;8.70;99.90
9776;DHT22;4927;52.472;13.108;2023-05-14T01:19:42;8.60;99.90
9776;DHT22;4927;52.472;13.108;2023-05-14T01:20:44;8.60;99.90
9776;DHT22;4927;52.472;13.108;2023-05-14T01:21:45;8.60;99.90
9776;DHT22;4927;52.472;13.108;2023-05-14T01:22:47;8.60;99.90
9776;DHT22;4927;52.472;13.108;2023-05-14T01:23:49;8.60;99.90
9776;DHT22;4927;52.472;13.108;2023-05-14T01:24:50;8.60;99.90
9776;DHT22;4927;52.472;13.108;2023-05-14T01:25:52;8.60;99.90
9776;DHT22;4927;52.472;13.108;2023-05-14T01:26:56;8.60;99.90
9776;DHT22;4927;52.472;13.108;2023-05-14T01:28:16;8.60;99.90
9776;DHT22;4927;52.472;13.108;2023-05-14T01:29:20;8.60;99.90
9776;DHT22;4927;52.472;13.108;2023-05-14T01:30:24;8.60;99.90
9776;DHT22;4927;52.472;13.108;2023-05-14T01:31:32;8.60;99.90
9776;DHT22;4927;52.472;13.108;2023-05-14T01:32:33;8.60;99.90
9776;DHT22;4927;52.472;13.108;2023-05-14T01:33:35;8.50;99.90
9776;DHT22;4927;52.472;13.108;2023-05-14T01:34:37;8.50;99.90
9776;DHT22;4927;52.472;13.108;2023-05-14T01:35:38;8.50;99.90
9776;DHT22;4927;52.472;13.108;2023-05-14T01:36:40;8.50;99.90
9776;DHT22;4927;52.472;13.108;2023-05-14T01:37:42;8.50;99.90
9776;DHT22;4927;52.472;13.108;2023-05-14T01:38:43;8.50;99.90
9776;DHT22;4927;52.472;13.108;2023-05-14T01:39:45;8.50;99.90
9776;DHT22;4927;52.472;13.108;2023-05-14T01:40:47;8.50;99.90
9776;DHT22;4927;52.472;13.108;2023-05-14T01:41:49;8.50;99.90
9776;DHT22;4927;52.472;13.108;2023-05-14T01:42:52;8.40;99.90
9776;DHT22;4927;52.472;13.108;2023-05-14T01:43:55;8.40;99.90
9776;DHT22;4927;52.472;13.108;2023-05-14T01:44:56;8.40;99.90
9776;DHT22;4927;52.472;13.108;2023-05-14T01:45:58;8.40;99.90
9776;DHT22;4927;52.472;13.108;2023-05-14T01:47:00;8.40;99.90
9776;DHT22;4927;52.472;13.108;2023-05-14T01:48:02;8.40;99.90
9776;DHT22;4927;52.472;13.108;2023-05-14T01:49:03;8.40;99.90
9776;DHT22;4927;52.472;13.108;2023-05-14T01:50:05;8.30;99.90
9776;DHT22;4927;52.472;13.108;2023-05-14T01:51:07;8.30;99.90
9776;DHT22;4927;52.472;13.108;2023-05-14T01:52:09;8.30;99.90
9776;DHT22;4927;52.472;13.108;2023-05-14T01:53:11;8.30;99.90
9776;DHT22;4927;52.472;13.108;2023-05-14T01:54:13;8.20;99.90
9776;DHT22;4927;52.472;13.108;2023-05-14T01:55:14;8.20;99.90
9776;DHT22;4927;52.472;13.108;2023-05-14T01:56:17;8.20;99.90
9776;DHT22;4927;52.472;13.108;2023-05-14T01:57:18;8.20;99.90
9776;DHT22;4927;52.472;13.108;2023-05-14T01:58:19;8.20;99.90
9776;DHT22;4927;52.472;13.108;2023-05-14T01:59:22;8.10;99.90
9776;DHT22;4927;52.472;13.108;2023-05-14T02:00:23;8.10;99.90
9776;DHT22;4927;52.472;13.108;2023-05-14T02:01:27;8.10;99.90
9776;DHT22;4927;52.472;13.108;2023-05-14T02:02:28;8.10;99.90
9776;DHT22;4927;52.472;13.108;2023-05-14T02:03:30;8.10;99.90
9776;DHT22;4927;52.472;13.108;2023-05-14T02:04:31;8.10;99.90
9776;DHT22;4927;52.472;13.108;2023-05-14T02:05:33;8.00;99.90
9776;DHT22;4927;52.472;13.108;2023-05-14T02:06:35;8.00;99.90
9776;DHT22;4927;52.472;13.108;2023-05-14T02:07:37;8.00;99.90
9776;DHT22;4927;52.472;13.108;2023-05-14T02:08:39;7.90;99.90
9776;DHT22;4927;52.472;13.108;2023-05-14T02:09:40;7.90;99.90
9776;DHT22;4927;52.472;13.108;2023-05-14T02:10:42;7.90;99.90
9776;DHT22;4927;52.472;13.108;2023-05-14T02:11:43;7.80;99.90
9776;DHT22;4927;52.472;13.108;2023-05-14T02:12:45;7.80;99.90
9776;DHT22;4927;52.472;13.108;2023-05-14T02:13:47;7.80;99.90
9776;DHT22;4927;52.472;13.108;2023-05-14T02:14:49;7.80;99.90
9776;DHT22;4927;52.472;13.108;2023-05-14T02:15:51;7.80;99.90
9776;DHT22;4927;52.472;13.108;2023-05-14T02:16:53;7.80;99.90
9776;DHT22;4927;52.472;13.108;2023-05-14T02:17:54;7.80;99.90
9776;DHT22;4927;52.472;13.108;2023-05-14T02:18:56;7.80;99.90
9776;DHT22;4927;52.472;13.108;2023-05-14T02:19:57;7.80;99.90
9776;DHT22;4927;52.472;13.108;2023-05-14T02:20:59;7.80;99.90
9776;DHT22;4927;52.472;13.108;2023-05-14T02:22:01;7.80;99.90
9776;DHT22;4927;52.472;13.108;2023-05-14T02:23:02;7.80;99.90
9776;DHT22;4927;52.472;13.108;2023-05-14T02:24:04;7.80;99.90
9776;DHT22;4927;52.472;13.108;2023-05-14T02:25:07;7.80;99.90
9776;DHT22;4927;52.472;13.108;2023-05-14T02:26:09;7.80;99.90
9776;DHT22;4927;52.472;13.108;2023-05-14T02:27:11;7.80;99.90
9776;DHT22;4927;52.472;13.108;2023-05-14T02:28:13;7.80;99.90
9776;DHT22;4927;52.472;13.108;2023-05-14T02:29:15;7.80;99.90
9776;DHT22;4927;52.472;13.108;2023-05-14T02:30:16;7.80;99.90
9776;DHT22;4927;52.472;13.108;2023-05-14T02:31:19;7.80;99.90
9776;DHT22;4927;52.472;13.108;2023-05-14T02:32:20;7.80;99.90
9776;DHT22;4927;52.472;13.108;2023-05-14T02:33:23;7.80;99.90
9776;DHT22;4927;52.472;13.108;2023-05-14T02:34:24;7.90;99.90
9776;DHT22;4927;52.472;13.108;2023-05-14T02:35:26;7.90;99.90
9776;DHT22;4927;52.472;13.108;2023-05-14T02:36:27;7.90;99.90
9776;DHT22;4927;52.472;13.108;2023-05-14T02:37:29;7.90;99.90
9776;DHT22;4927;52.472;13.108;2023-05-14T02:38:31;7.90;99.90
9776;DHT22;4927;52.472;13.108;2023-05-14T02:39:32;7.90;99.90
9776;DHT22;4927;52.472;13.108;2023-05-14T02:40:35;7.90;99.90
9776;DHT22;4927;52.472;13.108;2023-05-14T02:41:36;7.90;99.90
9776;DHT22;4927;52.472;13.108;2023-05-14T02:42:38;7.90;99.90
9776;DHT22;4927;52.472;13.108;2023-05-14T02:43:39;7.90;99.90
9776;DHT22;4927;52.472;13.108;2023-05-14T02:44:41;7.90;99.90
9776;DHT22;4927;52.472;13.108;2023-05-14T02:45:43;8.00;99.90
9776;DHT22;4927;52.472;13.108;2023-05-14T02:46:45;8.00;99.90
9776;DHT22;4927;52.472;13.108;2023-05-14T02:47:47;8.00;99.90
9776;DHT22;4927;52.472;13.108;2023-05-14T02:48:48;8.00;99.90
9776;DHT22;4927;52.472;13.108;2023-05-14T02:49:51;8.00;99.90
9776;DHT22;4927;52.472;13.108;2023-05-14T02:50:52;8.00;99.90
9776;DHT22;4927;52.472;13.108;2023-05-14T02:51:54;8.00;99.90
9776;DHT22;4927;52.472;13.108;2023-05-14T02:52:56;8.00;99.90
9776;DHT22;4927;52.472;13.108;2023-05-14T02:53:58;8.00;99.90
9776;DHT22;4927;52.472;13.108;2023-05-14T02:55:00;8.00;99.90
9776;DHT22;4927;52.472;13.108;2023-05-14T02:56:02;8.00;99.90
9776;DHT22;4927;52.472;13.108;2023-05-14T02:57:04;8.00;99.90
9776;DHT22;4927;52.472;13.108;2023-05-14T02:58:05;8.00;99.90
9776;DHT22;4927;52.472;13.108;2023-05-14T02:59:07;8.00;99.90
9776;DHT22;4927;52.472;13.108;2023-05-14T03:00:10;8.00;99.90
9776;DHT22;4927;52.472;13.108;2023-05-14T03:01:12;8.00;99.90
9776;DHT22;4927;52.472;13.108;2023-05-14T03:02:13;8.00;99.90
9776;DHT22;4927;52.472;13.108;2023-05-14T03:03:15;8.00;99.90
9776;DHT22;4927;52.472;13.108;2023-05-14T03:04:17;8.10;99.90
9776;DHT22;4927;52.472;13.108;2023-05-14T03:05:18;8.10;99.90
9776;DHT22;4927;52.472;13.108;2023-05-14T03:06:20;8.10;99.90
9776;DHT22;4927;52.472;13.108;2023-05-14T03:07:22;8.10;99.90
9776;DHT22;4927;52.472;13.108;2023-05-14T03:08:24;8.10;99.90
9776;DHT22;4927;52.472;13.108;2023-05-14T03:09:25;8.10;99.90
9776;DHT22;4927;52.472;13.108;2023-05-14T03:10:27;8.10;99.90
9776;DHT22;4927;52.472;13.108;2023-05-14T03:11:30;8.20;99.90
9776;DHT22;4927;52.472;13.108;2023-05-14T03:12:31;8.10;99.90
9776;DHT22;4927;52.472;13.108;2023-05-14T03:13:33;8.10;99.90
9776;DHT22;4927;52.472;13.108;2023-05-14T03:14:35;8.20;99.90
9776;DHT22;4927;52.472;13.108;2023-05-14T03:15:36;8.20;99.90
9776;DHT22;4927;52.472;13.108;2023-05-14T03:16:38;8.20;99.90
9776;DHT22;4927;52.472;13.108;2023-05-14T03:17:40;8.20;99.90
9776;DHT22;4927;52.472;13.108;2023-05-14T03:18:42;8.20;99.90
9776;DHT22;4927;52.472;13.108;2023-05-14T03:19:44;8.20;99.90
9776;DHT22;4927;52.472;13.108;2023-05-14T03:20:45;8.20;99.90
9776;DHT22;4927;52.472;13.108;2023-05-14T03:21:47;8.30;99.90
9776;DHT22;4927;52.472;13.108;2023-05-14T03:22:49;8.30;99.90
9776;DHT22;4927;52.472;13.108;2023-05-14T03:23:51;8.30;99.90
9776;DHT22;4927;52.472;13.108;2023-05-14T03:24:53;8.30;99.90
9776;DHT22;4927;52.472;13.108;2023-05-14T03:25:54;8.30;99.90
9776;DHT22;4927;52.472;13.108;2023-05-14T03:26:56;8.30;99.90
9776;DHT22;4927;52.472;13.108;2023-05-14T03:27:58;8.30;99.90
9776;DHT22;4927;52.472;13.108;2023-05-14T03:29:01;8.30;99.90
9776;DHT22;4927;52.472;13.108;2023-05-14T03:30:03;8.30;99.90
9776;DHT22;4927;52.472;13.108;2023-05-14T03:31:07;8.40;99.90
9776;DHT22;4927;52.472;13.108;2023-05-14T03:32:08;8.30;99.90
9776;DHT22;4927;52.472;13.108;2023-05-14T03:33:11;8.30;99.90
9776;DHT22;4927;52.472;13.108;2023-05-14T03:34:12;8.30;99.90
9776;DHT22;4927;52.472;13.108;2023-05-14T03:35:13;8.30;99.90
9776;DHT22;4927;52.472;13.108;2023-05-14T03:36:16;8.40;99.90
9776;DHT22;4927;52.472;13.108;2023-05-14T03:37:24;8.30;99.90
9776;DHT22;4927;52.472;13.108;2023-05-14T03:38:26;8.40;99.90
9776;DHT22;4927;52.472;13.108;2023-05-14T03:39:27;8.40;99.90
9776;DHT22;4927;52.472;13.108;2023-05-14T03:40:29;8.30;99.90
9776;DHT22;4927;52.472;13.108;2023-05-14T03:41:31;8.40;99.90
9776;DHT22;4927;52.472;13.108;2023-05-14T03:42:32;8.40;99.90
9776;DHT22;4927;52.472;13.108;2023-05-14T03:43:34;8.40;99.90
9776;DHT22;4927;52.472;13.108;2023-05-14T03:44:36;8.40;99.90
9776;DHT22;4927;52.472;13.108;2023-05-14T03:45:37;8.40;99.90
9776;DHT22;4927;52.472;13.108;2023-05-14T03:46:39;8.50;99.90
9776;DHT22;4927;52.472;13.108;2023-05-14T03:47:42;8.50;99.90
9776;DHT22;4927;52.472;13.108;2023-05-14T03:48:43;8.50;99.90
9776;DHT22;4927;52.472;13.108;2023-05-14T03:49:45;8.50;99.90
9776;DHT22;4927;52.472;13.108;2023-05-14T03:50:47;8.50;99.90
9776;DHT22;4927;52.472;13.108;2023-05-14T03:51:49;8.50;99.90
9776;DHT22;4927;52.472;13.108;2023-05-14T03:52:51;8.50;99.90
9776;DHT22;4927;52.472;13.108;2023-05-14T03:53:53;8.50;99.90
9776;DHT22;4927;52.472;13.108;2023-05-14T03:54:54;8.50;99.90
9776;DHT22;4927;52.472;13.108;2023-05-14T03:55:56;8.60;99.90
9776;DHT22;4927;52.472;13.108;2023-05-14T03:56:57;8.60;99.90
9776;DHT22;4927;52.472;13.108;2023-05-14T03:57:59;8.60;99.90
9776;DHT22;4927;52.472;13.108;2023-05-14T03:59:01;8.60;99.90
9776;DHT22;4927;52.472;13.108;2023-05-14T04:00:04;8.60;99.90
9776;DHT22;4927;52.472;13.108;2023-05-14T04:01:07;8.60;99.90
9776;DHT22;4927;52.472;13.108;2023-05-14T04:02:09;8.60;99.90
9776;DHT22;4927;52.472;13.108;2023-05-14T04:03:10;8.60;99.90
9776;DHT22;4927;52.472;13.108;2023-05-14T04:04:12;8.60;99.90
9776;DHT22;4927;52.472;13.108;2023-05-14T04:05:14;8.70;99.90
9776;DHT22;4927;52.472;13.108;2023-05-14T04:06:16;8.70;99.90
9776;DHT22;4927;52.472;13.108;2023-05-14T04:07:17;8.70;99.90
9776;DHT22;4927;52.472;13.108;2023-05-14T04:08:19;8.70;99.90
9776;DHT22;4927;52.472;13.108;2023-05-14T04:09:21;8.80;99.90
9776;DHT22;4927;52.472;13.108;2023-05-14T04:10:22;8.80;99.90
9776;DHT22;4927;52.472;13.108;2023-05-14T04:11:24;8.80;99.90
9776;DHT22;4927;52.472;13.108;2023-05-14T04:12:25;8.80;99.90
9776;DHT22;4927;52.472;13.108;2023-05-14T04:13:27;8.80;99.90
9776;DHT22;4927;52.472;13.108;2023-05-14T04:14:29;8.80;99.90
9776;DHT22;4927;52.472;13.108;2023-05-14T04:15:30;8.90;99.90
9776;DHT22;4927;52.472;13.108;2023-05-14T04:16:33;9.00;99.90
9776;DHT22;4927;52.472;13.108;2023-05-14T04:17:34;9.00;99.90
9776;DHT22;4927;52.472;13.108;2023-05-14T04:18:36;9.00;99.90
9776;DHT22;4927;52.472;13.108;2023-05-14T04:19:37;9.00;99.90
9776;DHT22;4927;52.472;13.108;2023-05-14T04:20:39;9.10;99.90
9776;DHT22;4927;52.472;13.108;2023-05-14T04:21:41;9.10;99.90
9776;DHT22;4927;52.472;13.108;2023-05-14T04:22:44;9.20;99.90
9776;DHT22;4927;52.472;13.108;2023-05-14T04:23:45;9.20;99.90
9776;DHT22;4927;52.472;13.108;2023-05-14T04:24:47;9.20;99.90
9776;DHT22;4927;52.472;13.108;2023-05-14T04:25:49;9.20;99.90
9776;DHT22;4927;52.472;13.108;2023-05-14T04:26:51;9.20;99.90
9776;DHT22;4927;52.472;13.108;2023-05-14T04:27:53;9.20;99.90
9776;DHT22;4927;52.472;13.108;2023-05-14T04:28:55;9.20;99.90
9776;DHT22;4927;52.472;13.108;2023-05-14T04:29:57;9.20;99.90
9776;DHT22;4927;52.472;13.108;2023-05-14T04:30:59;9.20;99.90
9776;DHT22;4927;52.472;13.108;2023-05-14T04:32:01;9.20;99.90
9776;DHT22;4927;52.472;13.108;2023-05-14T04:33:03;9.20;99.90
9776;DHT22;4927;52.472;13.108;2023-05-14T04:34:05;9.20;99.90
9776;DHT22;4927;52.472;13.108;2023-05-14T04:35:07;9.20;99.90
9776;DHT22;4927;52.472;13.108;2023-05-14T04:36:09;9.20;99.90
9776;DHT22;4927;52.472;13.108;2023-05-14T04:37:11;9.20;99.90
9776;DHT22;4927;52.472;13.108;2023-05-14T04:38:13;9.20;99.90
9776;DHT22;4927;52.472;13.108;2023-05-14T04:39:15;9.20;99.90
9776;DHT22;4927;52.472;13.108;2023-05-14T04:40:16;9.20;99.90
9776;DHT22;4927;52.472;13.108;2023-05-14T04:41:18;9.20;99.90
9776;DHT22;4927;52.472;13.108;2023-05-14T04:42:19;9.30;99.90
9776;DHT22;4927;52.472;13.108;2023-05-14T04:43:21;9.30;99.90
9776;DHT22;4927;52.472;13.108;2023-05-14T04:44:23;9.30;99.90
9776;DHT22;4927;52.472;13.108;2023-05-14T04:45:24;9.30;99.90
9776;DHT22;4927;52.472;13.108;2023-05-14T04:46:26;9.30;99.90
9776;DHT22;4927;52.472;13.108;2023-05-14T04:47:28;9.30;99.90
9776;DHT22;4927;52.472;13.108;2023-05-14T04:48:36;9.30;99.90
9776;DHT22;4927;52.472;13.108;2023-05-14T04:49:38;9.30;99.90
9776;DHT22;4927;52.472;13.108;2023-05-14T04:50:39;9.30;99.90
9776;DHT22;4927;52.472;13.108;2023-05-14T04:51:41;9.40;99.90
9776;DHT22;4927;52.472;13.108;2023-05-14T04:52:43;9.40;99.90
9776;DHT22;4927;52.472;13.108;2023-05-14T04:53:45;9.40;99.90
9776;DHT22;4927;52.472;13.108;2023-05-14T04:54:46;9.40;99.90
9776;DHT22;4927;52.472;13.108;2023-05-14T04:55:48;9.50;99.90
9776;DHT22;4927;52.472;13.108;2023-05-14T04:56:50;9.50;99.90
9776;DHT22;4927;52.472;13.108;2023-05-14T04:57:51;9.50;99.90
9776;DHT22;4927;52.472;13.108;2023-05-14T04:58:53;9.50;99.90
9776;DHT22;4927;52.472;13.108;2023-05-14T04:59:54;9.60;99.90
9776;DHT22;4927;52.472;13.108;2023-05-14T05:00:56;9.60;99.90
9776;DHT22;4927;52.472;13.108;2023-05-14T05:01:58;9.60;99.90
9776;DHT22;4927;52.472;13.108;2023-05-14T05:02:59;9.70;99.90
9776;DHT22;4927;52.472;13.108;2023-05-14T05:04:01;9.70;99.90
9776;DHT22;4927;52.472;13.108;2023-05-14T05:05:03;9.70;99.90
9776;DHT22;4927;52.472;13.108;2023-05-14T05:06:05;9.70;99.90
9776;DHT22;4927;52.472;13.108;2023-05-14T05:07:07;9.80;99.90
9776;DHT22;4927;52.472;13.108;2023-05-14T05:08:10;9.90;99.90
9776;DHT22;4927;52.472;13.108;2023-05-14T05:09:12;9.90;99.90
9776;DHT22;4927;52.472;13.108;2023-05-14T05:10:14;9.90;99.90
9776;DHT22;4927;52.472;13.108;2023-05-14T05:11:16;9.90;99.90
9776;DHT22;4927;52.472;13.108;2023-05-14T05:12:18;9.90;99.90
9776;DHT22;4927;52.472;13.108;2023-05-14T05:13:20;10.00;99.90
9776;DHT22;4927;52.472;13.108;2023-05-14T05:14:22;10.00;99.90
9776;DHT22;4927;52.472;13.108;2023-05-14T05:15:23;10.10;99.90
9776;DHT22;4927;52.472;13.108;2023-05-14T05:16:26;10.20;99.90
9776;DHT22;4927;52.472;13.108;2023-05-14T05:17:28;10.20;99.90
9776;DHT22;4927;52.472;13.108;2023-05-14T05:18:30;10.30;99.90
9776;DHT22;4927;52.472;13.108;2023-05-14T05:19:32;10.40;99.90
9776;DHT22;4927;52.472;13.108;2023-05-14T05:20:34;10.30;99.90
9776;DHT22;4927;52.472;13.108;2023-05-14T05:21:36;10.50;99.90
9776;DHT22;4927;52.472;13.108;2023-05-14T05:22:38;10.50;99.90
9776;DHT22;4927;52.472;13.108;2023-05-14T05:23:40;10.60;99.90
9776;DHT22;4927;52.472;13.108;2023-05-14T05:24:42;10.60;99.90
9776;DHT22;4927;52.472;13.108;2023-05-14T05:25:43;10.70;99.90
9776;DHT22;4927;52.472;13.108;2023-05-14T05:26:45;10.80;99.90
9776;DHT22;4927;52.472;13.108;2023-05-14T05:27:47;10.90;99.90
9776;DHT22;4927;52.472;13.108;2023-05-14T05:28:48;11.00;99.90
9776;DHT22;4927;52.472;13.108;2023-05-14T05:29:50;11.10;99.90
9776;DHT22;4927;52.472;13.108;2023-05-14T05:30:51;11.20;99.90
9776;DHT22;4927;52.472;13.108;2023-05-14T05:31:54;11.40;99.90
9776;DHT22;4927;52.472;13.108;2023-05-14T05:32:56;11.40;99.90
9776;DHT22;4927;52.472;13.108;2023-05-14T05:34:06;11.50;99.90
9776;DHT22;4927;52.472;13.108;2023-05-14T05:35:08;11.60;99.90
9776;DHT22;4927;52.472;13.108;2023-05-14T05:36:10;11.60;99.90
9776;DHT22;4927;52.472;13.108;2023-05-14T05:37:11;11.70;99.90
9776;DHT22;4927;52.472;13.108;2023-05-14T05:38:13;11.80;99.90
9776;DHT22;4927;52.472;13.108;2023-05-14T05:39:15;11.90;99.90
9776;DHT22;4927;52.472;13.108;2023-05-14T05:40:16;11.90;99.90
9776;DHT22;4927;52.472;13.108;2023-05-14T05:41:19;12.20;99.90
9776;DHT22;4927;52.472;13.108;2023-05-14T05:42:20;12.20;99.90
9776;DHT22;4927;52.472;13.108;2023-05-14T05:43:22;12.30;99.90
9776;DHT22;4927;52.472;13.108;2023-05-14T05:44:24;12.40;99.90
9776;DHT22;4927;52.472;13.108;2023-05-14T05:45:26;12.50;99.90
9776;DHT22;4927;52.472;13.108;2023-05-14T05:46:28;12.50;99.90
9776;DHT22;4927;52.472;13.108;2023-05-14T05:47:29;12.60;99.90
9776;DHT22;4927;52.472;13.108;2023-05-14T05:48:31;12.60;99.90
9776;DHT22;4927;52.472;13.108;2023-05-14T05:49:33;12.70;99.90
9776;DHT22;4927;52.472;13.108;2023-05-14T05:50:34;12.80;99.90
9776;DHT22;4927;52.472;13.108;2023-05-14T05:51:36;12.80;99.90
9776;DHT22;4927;52.472;13.108;2023-05-14T05:52:37;12.80;99.90
9776;DHT22;4927;52.472;13.108;2023-05-14T05:53:40;12.90;99.90
9776;DHT22;4927;52.472;13.108;2023-05-14T05:54:41;12.90;99.90
9776;DHT22;4927;52.472;13.108;2023-05-14T05:55:43;13.00;99.90
9776;DHT22;4927;52.472;13.108;2023-05-14T05:56:45;13.10;99.90
9776;DHT22;4927;52.472;13.108;2023-05-14T05:57:46;13.10;99.90
9776;DHT22;4927;52.472;13.108;2023-05-14T05:58:48;13.20;99.90
9776;DHT22;4927;52.472;13.108;2023-05-14T05:59:49;13.20;99.90
9776;DHT22;4927;52.472;13.108;2023-05-14T06:00:51;13.30;99.90
9776;DHT22;4927;52.472;13.108;2023-05-14T06:01:53;13.40;99.90
9776;DHT22;4927;52.472;13.108;2023-05-14T06:02:56;13.40;99.90
9776;DHT22;4927;52.472;13.108;2023-05-14T06:03:57;13.40;99.90
9776;DHT22;4927;52.472;13.108;2023-05-14T06:04:59;13.50;99.90
9776;DHT22;4927;52.472;13.108;2023-05-14T06:06:01;13.60;99.90
9776;DHT22;4927;52.472;13.108;2023-05-14T06:07:03;13.70;99.90
9776;DHT22;4927;52.472;13.108;2023-05-14T06:08:05;13.70;99.90
9776;DHT22;4927;52.472;13.108;2023-05-14T06:09:07;13.70;99.90
9776;DHT22;4927;52.472;13.108;2023-05-14T06:10:08;13.80;99.90
9776;DHT22;4927;52.472;13.108;2023-05-14T06:11:11;13.90;99.90
9776;DHT22;4927;52.472;13.108;2023-05-14T06:12:13;13.90;99.90
9776;DHT22;4927;52.472;13.108;2023-05-14T06:13:15;13.90;99.90
9776;DHT22;4927;52.472;13.108;2023-05-14T06:14:17;14.00;99.90
9776;DHT22;4927;52.472;13.108;2023-05-14T06:15:19;14.00;99.90
9776;DHT22;4927;52.472;13.108;2023-05-14T06:16:20;14.00;99.90
9776;DHT22;4927;52.472;13.108;2023-05-14T06:17:23;14.00;99.90
9776;DHT22;4927;52.472;13.108;2023-05-14T06:18:25;14.00;99.90
9776;DHT22;4927;52.472;13.108;2023-05-14T06:19:26;14.10;99.90
9776;DHT22;4927;52.472;13.108;2023-05-14T06:20:28;14.10;99.90
9776;DHT22;4927;52.472;13.108;2023-05-14T06:21:30;14.20;99.90
9776;DHT22;4927;52.472;13.108;2023-05-14T06:22:31;14.20;99.90
9776;DHT22;4927;52.472;13.108;2023-05-14T06:23:33;14.30;99.90
9776;DHT22;4927;52.472;13.108;2023-05-14T06:24:35;14.30;99.90
9776;DHT22;4927;52.472;13.108;2023-05-14T06:25:37;14.40;99.90
9776;DHT22;4927;52.472;13.108;2023-05-14T06:26:38;14.40;99.90
9776;DHT22;4927;52.472;13.108;2023-05-14T06:27:40;14.50;99.90
9776;DHT22;4927;52.472;13.108;2023-05-14T06:28:43;14.50;99.90
9776;DHT22;4927;52.472;13.108;2023-05-14T06:29:43;14.60;99.90
9776;DHT22;4927;52.472;13.108;2023-05-14T06:30:48;14.60;99.90
9776;DHT22;4927;52.472;13.108;2023-05-14T06:31:47;14.70;99.90
9776;DHT22;4927;52.472;13.108;2023-05-14T06:32:49;14.70;99.90
9776;DHT22;4927;52.472;13.108;2023-05-14T06:33:51;14.70;99.90
9776;DHT22;4927;52.472;13.108;2023-05-14T06:34:52;14.80;99.90
9776;DHT22;4927;52.472;13.108;2023-05-14T06:35:54;14.80;99.90
9776;DHT22;4927;52.472;13.108;2023-05-14T06:36:56;14.90;99.90
9776;DHT22;4927;52.472;13.108;2023-05-14T06:37:57;14.90;99.90
9776;DHT22;4927;52.472;13.108;2023-05-14T06:38:59;15.00;99.90
9776;DHT22;4927;52.472;13.108;2023-05-14T06:40:01;15.10;99.90
9776;DHT22;4927;52.472;13.108;2023-05-14T06:41:03;15.20;99.90
9776;DHT22;4927;52.472;13.108;2023-05-14T06:42:05;15.20;99.90
9776;DHT22;4927;52.472;13.108;2023-05-14T06:43:07;15.30;99.90
9776;DHT22;4927;52.472;13.108;2023-05-14T06:44:08;15.30;99.90
9776;DHT22;4927;52.472;13.108;2023-05-14T06:45:10;15.40;99.90
9776;DHT22;4927;52.472;13.108;2023-05-14T06:46:12;15.50;99.90